Time;durP1;ratioP1;P1;durP2;ratioP2;P2;SDS_P1;SDS_P2;PMS_P1;PMS_P2;Temp;Humidity;BMP_temperature;BMP_pressure;BME280_temperature;BME280_humidity;BME280_pressure;Samples;Min_cycle;Max_cycle;Signal;HPM_P1;HPM_P2
2023/06/09 00:01:22;;;;;;;;;;;;;;;;;;5043493;28;20011;-82
2023/06/09 00:03:51;;;;;;;;;;;;;;;;;;5032181;28;19925;-83
2023/06/09 00:06:22;;;;;;;;;;;;;;;;;;5044435;28;20380;-81
2023/06/09 00:08:49;;;;;;;;;;;;;;;;;;5047967;28;19925;-80
2023/06/09 00:11:16;;;;;;;;;;;;;;;;;;5045889;28;20020;-81
2023/06/09 00:13:43;;;;;;;;;;;;;;;;;;5037381;28;19944;-80
2023/06/09 00:16:12;;;;;;;;;;;;;;;;;;5046316;28;20190;-81
2023/06/09 00:18:41;;;;;;;;;;;;;;;;;;5035251;28;20022;-82
2023/06/09 00:21:08;;;;;;;;;;;;;;;;;;5037151;28;20225;-82
2023/06/09 00:23:35;;;;;;;;;;;;;;;;;;5033331;28;20399;-81
2023/06/09 00:26:02;;;;;;;;;;;;;;;;;;5028694;28;20374;-81
2023/06/09 00:28:29;;;;;;;;;;;;;;;;;;5034811;28;19947;-80
2023/06/09 00:30:56;;;;;;;;;;;;;;;;;;5044496;28;19925;-81
2023/06/09 00:33:23;;;;;;;;;;;;;;;;;;5036954;28;20027;-81
2023/06/09 00:35:50;;;;;;;;;;;;;;;;;;5020750;28;20364;-81
2023/06/09 00:38:17;;;;;;;;;;;;;;;;;;5033549;28;19925;-80
2023/06/09 00:40:44;;;;;;;;;;;;;;;;;;5033194;28;20009;-80
2023/06/09 00:43:11;;;;;;;;;;;;;;;;;;5035268;28;19928;-81
2023/06/09 00:45:38;;;;;;;;;;;;;;;;;;5035922;28;19928;-80
2023/06/09 00:48:05;;;;;;;;;;;;;;;;;;5044103;28;19931;-80
2023/06/09 00:50:32;;;;;;;;;;;;;;;;;;5038890;28;20380;-81
2023/06/09 00:52:59;;;;;;;;;;;;;;;;;;5039301;28;20026;-80
2023/06/09 00:55:26;;;;;;;;;;;;;;;;;;5035223;28;19924;-81
2023/06/09 00:57:55;;;;;;;;;;;;;;;;;;5033405;28;19925;-82
2023/06/09 01:00:25;;;;;;;;;;;;;;;;;;5034377;28;19935;-81
2023/06/09 01:02:52;;;;;;;;;;;;;;;;;;5020385;28;20417;-82
2023/06/09 01:05:19;;;;;;;;;;;;;;;;;;5032661;28;19925;-82
2023/06/09 01:07:46;;;;;;;;;;;;;;;;;;5036804;28;19925;-83
2023/06/09 01:10:13;;;;;;;;;;;;;;;;;;5040033;28;19929;-82
2023/06/09 01:12:40;;;;;;;;;;;;;;;;;;5032490;28;20368;-83
2023/06/09 01:15:07;;;;;;;;;;;;;;;;;;5044229;28;20007;-82
2023/06/09 01:17:34;;;;;;;;;;;;;;;;;;5038936;28;19989;-83
2023/06/09 01:20:05;;;;;;;;;;;;;;;;;;5034474;28;19931;-82
2023/06/09 01:22:32;;;;;;;;;;;;;;;;;;5044029;28;19970;-82
2023/06/09 01:24:59;;;;;;;;;;;;;;;;;;5036862;28;19932;-82
2023/06/09 01:27:26;;;;;;;;;;;;;;;;;;5039635;28;20016;-84
2023/06/09 01:29:53;;;;;;;;;;;;;;;;;;5048669;28;19967;-84
2023/06/09 01:32:20;;;;;;;;;;;;;;;;;;5043714;28;20395;-85
2023/06/09 01:34:47;;;;;;;;;;;;;;;;;;5036179;28;20016;-83
2023/06/09 01:37:14;;;;;;;;;;;;;;;;;;5035613;28;19931;-82
2023/06/09 01:39:41;;;;;;;;;;;;;;;;;;5038911;28;20017;-83
2023/06/09 01:42:08;;;;;;;;;;;;;;;;;;5042484;28;20372;-81
2023/06/09 01:44:36;;;;;;;;;;;;;;;;;;5034282;28;20359;-82
2023/06/09 01:47:02;;;;;;;;;;;;;;;;;;5033362;28;19925;-81
2023/06/09 01:49:29;;;;;;;;;;;;;;;;;;5031951;28;19964;-81
2023/06/09 01:51:56;;;;;;;;;;;;;;;;;;5021183;28;19925;-80
2023/06/09 01:54:23;;;;;;;;;;;;;;;;;;5036149;28;20032;-80
2023/06/09 01:56:50;;;;;;;;;;;;;;;;;;5050984;28;19971;-81
2023/06/09 01:59:17;;;;;;;;;;;;;;;;;;5041053;28;19933;-83
2023/06/09 02:01:44;;;;;;;;;;;;;;;;;;5033891;28;20011;-84
2023/06/09 02:04:11;;;;;;;;;;;;;;;;;;5034469;28;19975;-81
2023/06/09 02:06:38;;;;;;;;;;;;;;;;;;5036043;28;19925;-81
2023/06/09 02:09:05;;;;;;;;;;;;;;;;;;5031692;28;19928;-82
2023/06/09 02:11:32;;;;;;;;;;;;;;;;;;5036374;28;19929;-81
2023/06/09 02:13:59;;;;;;;;;;;;;;;;;;5037809;28;20007;-83
2023/06/09 02:16:26;;;;;;;;;;;;;;;;;;5031123;28;20019;-84
2023/06/09 02:18:55;;;;;;;;;;;;;;;;;;5033845;28;19929;-84
2023/06/09 02:21:22;;;;;;;;;;;;;;;;;;5048657;28;19968;-84
2023/06/09 02:23:49;;;;;;;;;;;;;;;;;;5034893;28;20035;-82
2023/06/09 02:26:16;;;;;;;;;;;;;;;;;;5038076;28;19955;-82
2023/06/09 02:28:43;;;;;;;;;;;;;;;;;;5032990;28;19925;-81
2023/06/09 02:31:10;;;;;;;;;;;;;;;;;;5036587;28;20024;-81
2023/06/09 02:33:37;;;;;;;;;;;;;;;;;;5035377;28;20019;-81
2023/06/09 02:36:04;;;;;;;;;;;;;;;;;;5036387;28;19929;-82
2023/06/09 02:38:32;;;;;;;;;;;;;;;;;;5036280;28;19997;-81
2023/06/09 02:40:59;;;;;;;;;;;;;;;;;;5036070;28;20293;-83
2023/06/09 02:43:26;;;;;;;;;;;;;;;;;;5039807;28;20402;-83
2023/06/09 02:45:52;;;;;;;;;;;;;;;;;;5036333;28;19961;-82
2023/06/09 02:48:19;;;;;;;;;;;;;;;;;;5039721;28;19972;-82
2023/06/09 02:50:46;;;;;;;;;;;;;;;;;;5042157;28;19932;-82
2023/06/09 02:53:13;;;;;;;;;;;;;;;;;;5041210;28;20010;-81
2023/06/09 02:55:44;;;;;;;;;;;;;;;;;;5041034;28;19936;-82
2023/06/09 02:58:14;;;;;;;;;;;;;;;;;;5042300;28;19929;-82
2023/06/09 03:00:41;;;;;;;;;;;;;;;;;;5041442;28;19924;-80
2023/06/09 03:03:08;;;;;;;;;;;;;;;;;;5049661;28;19931;-82
2023/06/09 03:05:35;;;;;;;;;;;;;;;;;;5039976;28;20020;-81
2023/06/09 03:08:02;;;;;;;;;;;;;;;;;;5038576;28;19931;-83
2023/06/09 03:10:29;;;;;;;;;;;;;;;;;;5052842;28;20013;-79
2023/06/09 03:12:56;;;;;;;;;;;;;;;;;;5041273;28;19939;-80
2023/06/09 03:15:24;;;;;;;;;;;;;;;;;;5033894;28;19925;-81
2023/06/09 03:17:51;;;;;;;;;;;;;;;;;;5029267;28;19925;-81
2023/06/09 03:20:19;;;;;;;;;;;;;;;;;;5042083;28;19963;-81
2023/06/09 03:22:47;;;;;;;;;;;;;;;;;;5040936;28;19940;-79
2023/06/09 03:25:15;;;;;;;;;;;;;;;;;;5036309;28;19976;-80
2023/06/09 03:27:42;;;;;;;;;;;;;;;;;;5038129;28;19931;-80
2023/06/09 03:30:09;;;;;;;;;;;;;;;;;;5046284;28;20017;-80
2023/06/09 03:32:36;;;;;;;;;;;;;;;;;;5033203;28;19931;-80
2023/06/09 03:35:03;;;;;;;;;;;;;;;;;;5035684;28;19932;-82
2023/06/09 03:37:30;;;;;;;;;;;;;;;;;;5034873;28;20384;-82
2023/06/09 03:39:57;;;;;;;;;;;;;;;;;;5038365;28;20609;-78
2023/06/09 03:42:25;;;;;;;;;;;;;;;;;;5050195;28;20394;-80
2023/06/09 03:44:57;;;;;;;;;;;;;;;;;;5037561;28;20716;-81
2023/06/09 03:47:24;;;;;;;;;;;;;;;;;;5040991;28;19925;-81
2023/06/09 03:49:51;;;;;;;;;;;;;;;;;;5045602;28;19969;-82
2023/06/09 03:52:19;;;;;;;;;;;;;;;;;;5025963;28;19933;-81
2023/06/09 03:54:46;;;;;;;;;;;;;;;;;;5042169;28;19945;-82
2023/06/09 03:57:13;;;;;;;;;;;;;;;;;;5048791;28;20003;-80
2023/06/09 03:59:40;;;;;;;;;;;;;;;;;;5037047;28;19925;-81
2023/06/09 04:02:07;;;;;;;;;;;;;;;;;;5034546;28;19932;-80
2023/06/09 04:04:34;;;;;;;;;;;;;;;;;;5044870;28;20391;-78
2023/06/09 04:07:01;;;;;;;;;;;;;;;;;;5035987;28;19929;-83
2023/06/09 04:09:28;;;;;;;;;;;;;;;;;;5037518;28;19925;-82
2023/06/09 04:11:55;;;;;;;;;;;;;;;;;;5035030;28;19933;-83
2023/06/09 04:14:22;;;;;;;;;;;;;;;;;;5036323;28;19931;-82
2023/06/09 04:16:49;;;;;;;;;;;;;;;;;;5035708;28;20013;-82
2023/06/09 04:19:16;;;;;;;;;;;;;;;;;;5032892;28;19980;-82
2023/06/09 04:21:43;;;;;;;;;;;;;;;;;;5033699;28;19935;-82
2023/06/09 04:24:10;;;;;;;;;;;;;;;;;;5042481;28;19925;-81
2023/06/09 04:26:37;;;;;;;;;;;;;;;;;;5032905;28;19960;-82
2023/06/09 04:29:04;;;;;;;;;;;;;;;;;;5033883;28;20159;-82
2023/06/09 04:31:33;;;;;;;;;;;;;;;;;;5037922;28;20028;-82
2023/06/09 04:34:05;;;;;;;;;;;;;;;;;;5037509;28;19925;-81
2023/06/09 04:36:33;;;;;;;;;;;;;;;;;;5035655;28;19929;-82
2023/06/09 04:39:00;;;;;;;;;;;;;;;;;;5035604;28;20279;-83
2023/06/09 04:41:27;;;;;;;;;;;;;;;;;;5044519;28;19972;-82
2023/06/09 04:43:54;;;;;;;;;;;;;;;;;;5036465;28;20403;-81
2023/06/09 04:46:24;;;;;;;;;;;;;;;;;;5037480;28;19943;-80
2023/06/09 04:48:54;;;;;;;;;;;;;;;;;;5037634;28;19974;-82
2023/06/09 04:51:24;;;;;;;;;;;;;;;;;;5042912;28;19933;-81
2023/06/09 04:53:53;;;;;;;;;;;;;;;;;;5043881;28;20031;-81
2023/06/09 04:56:20;;;;;;;;;;;;;;;;;;5036265;28;19928;-80
2023/06/09 04:58:47;;;;;;;;;;;;;;;;;;5037282;28;19925;-79
2023/06/09 05:01:14;;;;;;;;;;;;;;;;;;5039131;28;19931;-78
2023/06/09 05:03:41;;;;;;;;;;;;;;;;;;5032832;28;19967;-81
2023/06/09 05:06:08;;;;;;;;;;;;;;;;;;5032937;28;19925;-80
2023/06/09 05:08:36;;;;;;;;;;;;;;;;;;5033356;28;19925;-83
2023/06/09 05:11:03;;;;;;;;;;;;;;;;;;5031921;28;20016;-81
2023/06/09 05:13:30;;;;;;;;;;;;;;;;;;5032954;28;20027;-83
2023/06/09 05:15:57;;;;;;;;;;;;;;;;;;5031660;28;19934;-82
2023/06/09 05:18:26;;;;;;;;;;;;;;;;;;5028165;28;19971;-75
2023/06/09 05:20:53;;;;;;;;;;;;;;;;;;5031692;28;19925;-76
2023/06/09 05:23:20;;;;;;;;;;;;;;;;;;5032292;28;19983;-78
2023/06/09 05:25:47;;;;;;;;;;;;;;;;;;5032032;28;19976;-76
2023/06/09 05:28:14;;;;;;;;;;;;;;;;;;5030917;28;20410;-77
2023/06/09 05:30:41;;;;;;;;;;;;;;;;;;5052433;28;19924;-76
2023/06/09 05:33:08;;;;;;;;;;;;;;;;;;5037820;28;20021;-76
2023/06/09 05:35:35;;;;;;;;;;;;;;;;;;5032069;28;20124;-77
2023/06/09 05:38:02;;;;;;;;;;;;;;;;;;5038680;28;20018;-77
2023/06/09 05:40:29;;;;;;;;;;;;;;;;;;5051333;28;19976;-76
2023/06/09 05:42:55;;;;;;;;;;;;;;;;;;5051452;28;20467;-76
2023/06/09 05:45:22;;;;;;;;;;;;;;;;;;5031183;28;20447;-77
2023/06/09 05:47:50;;;;;;;;;;;;;;;;;;5036968;28;19932;-76
2023/06/09 05:50:17;;;;;;;;;;;;;;;;;;5022170;28;20003;-77
2023/06/09 05:52:44;;;;;;;;;;;;;;;;;;5012123;28;20350;-76
2023/06/09 05:55:11;;;;;;;;;;;;;;;;;;5012539;28;19933;-76
2023/06/09 05:57:40;;;;;;;;;;;;;;;;;;5012287;28;19925;-74
2023/06/09 06:00:09;;;;;;;;;;;;;;;;;;5013370;28;20058;-75
2023/06/09 06:02:38;;;;;;;;;;;;;;;;;;5036157;28;19925;-78
2023/06/09 06:05:05;;;;;;;;;;;;;;;;;;5033713;28;19933;-78
2023/06/09 06:07:32;;;;;;;;;;;;;;;;;;5037585;28;19925;-82
2023/06/09 06:09:59;;;;;;;;;;;;;;;;;;5038475;28;20111;-78
2023/06/09 06:12:26;;;;;;;;;;;;;;;;;;5040446;28;20012;-78
2023/06/09 06:14:53;;;;;;;;;;;;;;;;;;5034096;28;20016;-77
2023/06/09 06:17:20;;;;;;;;;;;;;;;;;;5032168;28;20032;-79
2023/06/09 06:19:47;;;;;;;;;;;;;;;;;;5032730;28;19982;-79
2023/06/09 06:22:14;;;;;;;;;;;;;;;;;;5034823;28;20019;-80
2023/06/09 06:24:41;;;;;;;;;;;;;;;;;;5017095;28;19932;-77
2023/06/09 06:27:08;;;;;;;;;;;;;;;;;;5025382;28;20016;-78
2023/06/09 06:29:38;;;;;;;;;;;;;;;;;;5039269;28;19933;-79
2023/06/09 06:32:05;;;;;;;;;;;;;;;;;;5041813;28;20360;-77
2023/06/09 06:34:32;;;;;;;;;;;;;;;;;;5043916;28;20018;-78
2023/06/09 06:37:00;;;;;;;;;;;;;;;;;;5026626;28;19975;-78
2023/06/09 06:39:27;;;;;;;;;;;;;;;;;;5050193;28;20002;-78
2023/06/09 06:41:54;;;;;;;;;;;;;;;;;;5030704;28;20099;-78
2023/06/09 06:44:21;;;;;;;;;;;;;;;;;;5035121;28;19925;-79
2023/06/09 06:46:48;;;;;;;;;;;;;;;;;;5034886;28;20401;-78
2023/06/09 06:49:15;;;;;;;;;;;;;;;;;;5035091;28;19956;-79
2023/06/09 06:51:41;;;;;;;;;;;;;;;;;;5033868;28;20011;-79
2023/06/09 06:54:08;;;;;;;;;;;;;;;;;;5033433;28;19932;-78
2023/06/09 06:56:36;;;;;;;;;;;;;;;;;;5047337;28;20031;-80
2023/06/09 06:59:03;;;;;;;;;;;;;;;;;;5027755;28;19948;-78
2023/06/09 07:01:32;;;;;;;;;;;;;;;;;;5036752;28;20011;-80
2023/06/09 07:04:00;;;;;;;;;;;;;;;;;;5034087;28;19974;-79
2023/06/09 07:06:27;;;;;;;;;;;;;;;;;;5031023;28;19971;-76
2023/06/09 07:08:55;;;;;;;;;;;;;;;;;;5035969;28;20376;-78
2023/06/09 07:11:22;;;;;;;;;;;;;;;;;;5042542;28;20384;-77
2023/06/09 07:13:51;;;;;;;;;;;;;;;;;;5031718;28;19926;-77
2023/06/09 07:16:18;;;;;;;;;;;;;;;;;;5039622;28;19960;-78
2023/06/09 07:18:45;;;;;;;;;;;;;;;;;;5035335;28;19925;-76
2023/06/09 07:21:12;;;;;;;;;;;;;;;;;;5032033;28;19937;-76
2023/06/09 07:23:39;;;;;;;;;;;;;;;;;;5033275;28;20374;-77
2023/06/09 07:26:06;;;;;;;;;;;;;;;;;;5039811;28;19970;-76
2023/06/09 07:28:33;;;;;;;;;;;;;;;;;;5031695;28;19933;-77
2023/06/09 07:31:00;;;;;;;;;;;;;;;;;;5030615;28;20043;-75
2023/06/09 07:33:31;;;;;;;;;;;;;;;;;;5030396;28;19951;-77
2023/06/09 07:35:58;;;;;;;;;;;;;;;;;;5036830;28;20418;-77
2023/06/09 07:38:26;;;;;;;;;;;;;;;;;;5050259;28;20501;-77
2023/06/09 07:40:53;;;;;;;;;;;;;;;;;;5031851;28;19925;-77
2023/06/09 07:43:20;;;;;;;;;;;;;;;;;;5026066;28;20109;-77
2023/06/09 07:45:47;;;;;;;;;;;;;;;;;;5038100;28;19925;-78
2023/06/09 07:48:14;;;;;;;;;;;;;;;;;;5033313;28;20019;-76
2023/06/09 07:50:41;;;;;;;;;;;;;;;;;;5031841;28;20012;-76
2023/06/09 07:53:09;;;;;;;;;;;;;;;;;;5023996;28;19933;-76
2023/06/09 07:55:36;;;;;;;;;;;;;;;;;;5035366;28;20020;-76
2023/06/09 07:58:03;;;;;;;;;;;;;;;;;;5041173;28;19925;-76
2023/06/09 08:00:30;;;;;;;;;;;;;;;;;;5031148;28;20653;-77
2023/06/09 08:03:00;;;;;;;;;;;;;;;;;;5028193;28;20356;-76
2023/06/09 08:05:27;;;;;;;;;;;;;;;;;;5034594;28;20411;-76
2023/06/09 08:07:54;;;;;;;;;;;;;;;;;;5036349;28;20412;-77
2023/06/09 08:10:21;;;;;;;;;;;;;;;;;;5029971;28;19925;-76
2023/06/09 08:12:48;;;;;;;;;;;;;;;;;;5032898;28;19929;-78
2023/06/09 08:15:15;;;;;;;;;;;;;;;;;;5034724;28;20563;-77
2023/06/09 08:17:42;;;;;;;;;;;;;;;;;;5040961;28;20299;-78
2023/06/09 08:20:09;;;;;;;;;;;;;;;;;;5033434;28;19984;-78
2023/06/09 08:22:36;;;;;;;;;;;;;;;;;;5022219;28;20292;-78
2023/06/09 08:25:03;;;;;;;;;;;;;;;;;;5028864;28;20287;-78
2023/06/09 08:27:30;;;;;;;;;;;;;;;;;;5031130;28;20019;-77
2023/06/09 08:29:57;;;;;;;;;;;;;;;;;;5035507;28;19937;-78
2023/06/09 08:32:24;;;;;;;;;;;;;;;;;;5029284;28;20035;-78
2023/06/09 08:34:51;;;;;;;;;;;;;;;;;;5032582;28;19932;-78
2023/06/09 08:37:19;;;;;;;;;;;;;;;;;;5035046;28;19929;-77
2023/06/09 08:39:47;;;;;;;;;;;;;;;;;;5029431;28;20380;-77
2023/06/09 08:42:14;;;;;;;;;;;;;;;;;;5024171;28;19932;-78
2023/06/09 08:44:42;;;;;;;;;;;;;;;;;;5028148;28;19971;-78
2023/06/09 08:47:09;;;;;;;;;;;;;;;;;;5028732;28;19971;-79
2023/06/09 08:49:36;;;;;;;;;;;;;;;;;;5030521;28;19949;-77
2023/06/09 08:52:02;;;;;;;;;;;;;;;;;;5037216;28;20235;-78
2023/06/09 08:54:30;;;;;;;;;;;;;;;;;;5031032;28;19935;-79
2023/06/09 08:56:57;;;;;;;;;;;;;;;;;;5031288;28;19925;-78
2023/06/09 08:59:24;;;;;;;;;;;;;;;;;;5031124;28;19936;-79
2023/06/09 09:01:51;;;;;;;;;;;;;;;;;;5030817;28;19961;-79
2023/06/09 09:04:18;;;;;;;;;;;;;;;;;;5030391;28;19924;-78
2023/06/09 09:06:45;;;;;;;;;;;;;;;;;;5032479;28;20510;-76
2023/06/09 09:09:12;;;;;;;;;;;;;;;;;;5030596;28;19932;-77
2023/06/09 09:11:39;;;;;;;;;;;;;;;;;;5029922;28;20023;-78
2023/06/09 09:14:06;;;;;;;;;;;;;;;;;;5025920;28;19925;-78
2023/06/09 09:16:33;;;;;;;;;;;;;;;;;;5032221;28;19933;-78
2023/06/09 09:19:00;;;;;;;;;;;;;;;;;;5034722;28;20375;-78
2023/06/09 09:21:27;;;;;;;;;;;;;;;;;;5038937;28;20036;-80
2023/06/09 09:23:54;;;;;;;;;;;;;;;;;;5032182;28;20024;-80
2023/06/09 09:26:22;;;;;;;;;;;;;;;;;;5033005;28;20006;-79
2023/06/09 09:28:51;;;;;;;;;;;;;;;;;;5016259;28;19972;-80
2023/06/09 09:31:18;;;;;;;;;;;;;;;;;;5027482;28;19956;-79
2023/06/09 09:33:45;;;;;;;;;;;;;;;;;;5029567;28;20010;-80
2023/06/09 09:36:12;;;;;;;;;;;;;;;;;;5034162;28;19924;-80
2023/06/09 09:38:39;;;;;;;;;;;;;;;;;;5031143;28;19979;-80
2023/06/09 09:41:06;;;;;;;;;;;;;;;;;;5031471;28;19925;-79
2023/06/09 09:43:33;;;;;;;;;;;;;;;;;;5029367;28;19925;-79
2023/06/09 09:46:00;;;;;;;;;;;;;;;;;;5033283;28;19925;-81
2023/06/09 09:48:27;;;;;;;;;;;;;;;;;;5022840;28;19925;-80
2023/06/09 09:50:54;;;;;;;;;;;;;;;;;;5029870;28;19931;-79
2023/06/09 09:53:21;;;;;;;;;;;;;;;;;;5031033;28;19925;-80
2023/06/09 09:55:48;;;;;;;;;;;;;;;;;;5030759;28;19975;-80
2023/06/09 09:58:16;;;;;;;;;;;;;;;;;;5031080;28;20459;-79
2023/06/09 10:00:43;;;;;;;;;;;;;;;;;;5029623;28;20036;-79
2023/06/09 10:03:10;;;;;;;;;;;;;;;;;;5031221;28;20349;-78
2023/06/09 10:05:39;;;;;;;;;;;;;;;;;;5016737;28;19931;-80
2023/06/09 10:08:06;;;;;;;;;;;;;;;;;;5029769;28;19925;-80
2023/06/09 10:10:33;;;;;;;;;;;;;;;;;;5025875;28;20375;-77
2023/06/09 10:13:02;;;;;;;;;;;;;;;;;;5027749;28;19933;-78
2023/06/09 10:15:29;;;;;;;;;;;;;;;;;;5024321;28;20006;-79
2023/06/09 10:17:56;;;;;;;;;;;;;;;;;;5031893;28;19932;-79
2023/06/09 10:20:23;;;;;;;;;;;;;;;;;;5028558;28;19939;-79
2023/06/09 10:22:51;;;;;;;;;;;;;;;;;;5028141;28;20008;-79
2023/06/09 10:25:18;;;;;;;;;;;;;;;;;;5027751;28;19964;-80
2023/06/09 10:27:45;;;;;;;;;;;;;;;;;;5034354;28;19929;-79
2023/06/09 10:30:12;;;;;;;;;;;;;;;;;;5031942;28;20024;-80
2023/06/09 10:32:40;;;;;;;;;;;;;;;;;;5030514;28;20339;-78
2023/06/09 10:35:07;;;;;;;;;;;;;;;;;;5025279;28;20495;-79
2023/06/09 10:37:34;;;;;;;;;;;;;;;;;;5025532;28;20392;-80
2023/06/09 10:40:01;;;;;;;;;;;;;;;;;;5026564;28;19947;-79
2023/06/09 10:42:29;;;;;;;;;;;;;;;;;;5030836;28;20339;-79
2023/06/09 10:44:56;;;;;;;;;;;;;;;;;;5030991;28;20016;-79
2023/06/09 10:47:23;;;;;;;;;;;;;;;;;;5031251;28;20323;-78
2023/06/09 10:49:50;;;;;;;;;;;;;;;;;;5031484;28;20307;-77
2023/06/09 10:52:17;;;;;;;;;;;;;;;;;;5034792;28;20023;-79
2023/06/09 10:54:44;;;;;;;;;;;;;;;;;;5032662;28;19925;-78
2023/06/09 10:57:11;;;;;;;;;;;;;;;;;;5033545;28;20016;-77
2023/06/09 10:59:38;;;;;;;;;;;;;;;;;;5031215;28;20003;-77
2023/06/09 11:02:08;;;;;;;;;;;;;;;;;;5032183;28;19965;-77
2023/06/09 11:04:35;;;;;;;;;;;;;;;;;;5026705;28;19925;-78
2023/06/09 11:07:02;;;;;;;;;;;;;;;;;;5036514;28;20020;-77
2023/06/09 11:09:29;;;;;;;;;;;;;;;;;;5034117;28;19933;-78
2023/06/09 11:11:56;;;;;;;;;;;;;;;;;;5030545;28;19932;-77
2023/06/09 11:14:23;;;;;;;;;;;;;;;;;;5030725;28;19947;-77
2023/06/09 11:16:50;;;;;;;;;;;;;;;;;;5037207;28;19947;-78
2023/06/09 11:19:17;;;;;;;;;;;;;;;;;;5032118;28;20244;-78
2023/06/09 11:21:44;;;;;;;;;;;;;;;;;;5030188;28;20019;-77
2023/06/09 11:24:11;;;;;;;;;;;;;;;;;;5033575;28;19964;-78
2023/06/09 11:26:38;;;;;;;;;;;;;;;;;;5030197;28;20343;-77
2023/06/09 11:29:05;;;;;;;;;;;;;;;;;;5030745;28;19941;-78
2023/06/09 11:31:32;;;;;;;;;;;;;;;;;;5032718;28;19932;-78
2023/06/09 11:33:59;;;;;;;;;;;;;;;;;;5029104;28;19933;-78
2023/06/09 11:36:27;;;;;;;;;;;;;;;;;;5038460;28;20051;-77
2023/06/09 11:38:54;;;;;;;;;;;;;;;;;;5033085;28;19925;-77
2023/06/09 11:41:24;;;;;;;;;;;;;;;;;;5030879;28;19933;-80
2023/06/09 11:43:51;;;;;;;;;;;;;;;;;;5033453;28;20460;-77
2023/06/09 11:46:18;;;;;;;;;;;;;;;;;;5032099;28;20020;-79
2023/06/09 11:48:45;;;;;;;;;;;;;;;;;;5032891;28;19932;-78
2023/06/09 11:51:12;;;;;;;;;;;;;;;;;;5035121;28;19976;-78
2023/06/09 11:53:39;;;;;;;;;;;;;;;;;;5042358;28;20023;-76
2023/06/09 11:56:06;;;;;;;;;;;;;;;;;;5037829;28;19929;-78
2023/06/09 11:58:33;;;;;;;;;;;;;;;;;;5031770;28;20400;-78
2023/06/09 12:01:00;;;;;;;;;;;;;;;;;;5032386;28;20455;-79
2023/06/09 12:03:27;;;;;;;;;;;;;;;;;;5025681;28;20402;-78
2023/06/09 12:05:54;;;;;;;;;;;;;;;;;;5034735;28;20011;-79
2023/06/09 12:08:21;;;;;;;;;;;;;;;;;;5030215;28;19932;-78
2023/06/09 12:10:48;;;;;;;;;;;;;;;;;;5032748;28;19925;-78
2023/06/09 12:13:16;;;;;;;;;;;;;;;;;;5032842;28;20011;-78
2023/06/09 12:15:46;;;;;;;;;;;;;;;;;;5028402;28;20028;-78
2023/06/09 12:18:13;;;;;;;;;;;;;;;;;;5034340;28;19925;-78
2023/06/09 12:20:41;;;;;;;;;;;;;;;;;;5027458;28;20081;-78
2023/06/09 12:23:08;;;;;;;;;;;;;;;;;;5031574;28;19925;-79
2023/06/09 12:25:35;;;;;;;;;;;;;;;;;;5028743;28;19925;-78
2023/06/09 12:28:02;;;;;;;;;;;;;;;;;;5028760;28;19932;-76
2023/06/09 12:30:29;;;;;;;;;;;;;;;;;;5032451;28;20300;-76
2023/06/09 12:32:56;;;;;;;;;;;;;;;;;;5033343;28;20036;-75
2023/06/09 12:35:24;;;;;;;;;;;;;;;;;;5026109;28;19925;-76
2023/06/09 12:37:51;;;;;;;;;;;;;;;;;;5030443;28;19932;-76
2023/06/09 12:40:18;;;;;;;;;;;;;;;;;;5032692;28;20015;-76
2023/06/09 12:42:44;;;;;;;;;;;;;;;;;;5035038;28;20352;-76
2023/06/09 12:45:11;;;;;;;;;;;;;;;;;;5035444;28;20016;-76
2023/06/09 12:47:38;;;;;;;;;;;;;;;;;;5029998;28;19925;-76
2023/06/09 12:50:06;;;;;;;;;;;;;;;;;;5031581;28;19932;-76
2023/06/09 12:52:33;;;;;;;;;;;;;;;;;;5029802;28;20303;-75
2023/06/09 12:55:00;;;;;;;;;;;;;;;;;;5026806;28;19929;-74
2023/06/09 12:57:27;;;;;;;;;;;;;;;;;;5040727;28;20036;-76
2023/06/09 12:59:54;;;;;;;;;;;;;;;;;;5031051;28;19932;-77
2023/06/09 13:02:21;;;;;;;;;;;;;;;;;;5028507;28;19931;-76
2023/06/09 13:04:48;;;;;;;;;;;;;;;;;;5031773;28;20408;-75
2023/06/09 13:07:15;;;;;;;;;;;;;;;;;;5031471;28;20402;-75
2023/06/09 13:09:42;;;;;;;;;;;;;;;;;;5032937;28;20289;-75
2023/06/09 13:12:10;;;;;;;;;;;;;;;;;;5026801;28;19925;-78
2023/06/09 13:14:37;;;;;;;;;;;;;;;;;;5027256;28;19933;-75
2023/06/09 13:17:04;;;;;;;;;;;;;;;;;;5026618;28;19960;-75
2023/06/09 13:19:31;;;;;;;;;;;;;;;;;;5030047;28;19968;-76
2023/06/09 13:21:58;;;;;;;;;;;;;;;;;;5028684;28;20023;-75
2023/06/09 13:24:25;;;;;;;;;;;;;;;;;;5028026;28;20011;-75
2023/06/09 13:26:52;;;;;;;;;;;;;;;;;;5026933;28;19937;-76
2023/06/09 13:29:19;;;;;;;;;;;;;;;;;;5025423;28;19929;-75
2023/06/09 13:31:46;;;;;;;;;;;;;;;;;;5030593;28;19968;-76
2023/06/09 13:34:14;;;;;;;;;;;;;;;;;;5051253;28;20012;-76
2023/06/09 13:36:41;;;;;;;;;;;;;;;;;;5025949;28;20539;-76
2023/06/09 13:39:08;;;;;;;;;;;;;;;;;;5032303;28;19931;-74
2023/06/09 13:41:35;;;;;;;;;;;;;;;;;;5028111;28;19963;-76
2023/06/09 13:44:02;;;;;;;;;;;;;;;;;;5027720;28;19925;-75
2023/06/09 13:46:29;;;;;;;;;;;;;;;;;;5025337;28;19933;-76
2023/06/09 13:48:56;;;;;;;;;;;;;;;;;;5030068;28;19932;-75
2023/06/09 13:51:23;;;;;;;;;;;;;;;;;;5028012;28;19961;-76
2023/06/09 13:53:50;;;;;;;;;;;;;;;;;;5023861;28;19933;-78
2023/06/09 13:56:20;;;;;;;;;;;;;;;;;;5026926;28;19929;-76
2023/06/09 13:58:46;;;;;;;;;;;;;;;;;;5023664;28;20020;-77
2023/06/09 14:01:14;;;;;;;;;;;;;;;;;;5022726;28;20460;-78
2023/06/09 14:03:41;;;;;;;;;;;;;;;;;;5020524;28;19936;-79
2023/06/09 14:06:08;;;;;;;;;;;;;;;;;;5025621;28;19925;-78
2023/06/09 14:08:35;;;;;;;;;;;;;;;;;;5030763;28;19926;-78
2023/06/09 14:11:02;;;;;;;;;;;;;;;;;;5034588;28;20407;-75
2023/06/09 14:13:29;;;;;;;;;;;;;;;;;;5021610;28;19925;-75
2023/06/09 14:15:57;;;;;;;;;;;;;;;;;;5029328;28;20411;-78
2023/06/09 14:18:23;;;;;;;;;;;;;;;;;;5020128;28;19962;-76
2023/06/09 14:20:51;;;;;;;;;;;;;;;;;;5021041;28;19969;-76
2023/06/09 14:23:18;;;;;;;;;;;;;;;;;;5026051;28;19925;-76
2023/06/09 14:25:45;;;;;;;;;;;;;;;;;;5033012;28;20237;-76
2023/06/09 14:28:12;;;;;;;;;;;;;;;;;;5028815;28;19929;-77
2023/06/09 14:30:39;;;;;;;;;;;;;;;;;;5027584;28;20392;-77
2023/06/09 14:33:06;;;;;;;;;;;;;;;;;;5028590;28;20355;-77
2023/06/09 14:35:33;;;;;;;;;;;;;;;;;;5031594;28;19979;-76
2023/06/09 14:38:00;;;;;;;;;;;;;;;;;;5032633;28;19925;-76
2023/06/09 14:40:28;;;;;;;;;;;;;;;;;;5034230;28;19925;-76
2023/06/09 14:42:55;;;;;;;;;;;;;;;;;;5028331;28;19933;-77
2023/06/09 14:45:22;;;;;;;;;;;;;;;;;;5033491;28;20507;-77
2023/06/09 14:47:51;;;;;;;;;;;;;;;;;;5032644;28;20023;-76
2023/06/09 14:50:22;;;;;;;;;;;;;;;;;;5033723;28;19987;-77
2023/06/09 14:52:51;;;;;;;;;;;;;;;;;;5031467;28;19926;-77
2023/06/09 14:55:22;;;;;;;;;;;;;;;;;;5018861;28;19926;-77
2023/06/09 14:57:49;;;;;;;;;;;;;;;;;;5023891;28;19932;-77
2023/06/09 15:00:17;;;;;;;;;;;;;;;;;;5029489;28;19926;-76
2023/06/09 15:02:44;;;;;;;;;;;;;;;;;;5028171;28;19972;-77
2023/06/09 15:05:11;;;;;;;;;;;;;;;;;;5027077;28;20351;-76
2023/06/09 15:07:38;;;;;;;;;;;;;;;;;;5021468;28;19980;-77
2023/06/09 15:10:05;;;;;;;;;;;;;;;;;;5026841;28;20019;-76
2023/06/09 15:12:32;;;;;;;;;;;;;;;;;;5023161;28;19925;-76
2023/06/09 15:14:59;;;;;;;;;;;;;;;;;;5026526;28;20346;-78
2023/06/09 15:17:26;;;;;;;;;;;;;;;;;;5033799;28;20380;-76
2023/06/09 15:19:53;;;;;;;;;;;;;;;;;;5028566;28;19932;-77
2023/06/09 15:22:20;;;;;;;;;;;;;;;;;;5029086;28;20381;-76
2023/06/09 15:24:47;;;;;;;;;;;;;;;;;;5025504;28;19964;-77
2023/06/09 15:27:14;;;;;;;;;;;;;;;;;;5022090;28;20423;-76
2023/06/09 15:29:41;;;;;;;;;;;;;;;;;;5028384;28;20351;-77
2023/06/09 15:32:08;;;;;;;;;;;;;;;;;;5026844;28;19925;-76
2023/06/09 15:34:35;;;;;;;;;;;;;;;;;;5022829;28;19969;-77
2023/06/09 15:37:03;;;;;;;;;;;;;;;;;;5034552;28;19931;-76
2023/06/09 15:39:30;;;;;;;;;;;;;;;;;;5035452;28;19929;-77
2023/06/09 15:41:57;;;;;;;;;;;;;;;;;;5040223;28;19975;-78
2023/06/09 15:44:24;;;;;;;;;;;;;;;;;;5045192;28;19967;-77
2023/06/09 15:46:51;;;;;;;;;;;;;;;;;;5016780;28;19941;-77
2023/06/09 15:49:18;;;;;;;;;;;;;;;;;;5016496;28;23593;-77
2023/06/09 15:51:45;;;;;;;;;;;;;;;;;;5028871;28;19932;-77
2023/06/09 15:54:12;;;;;;;;;;;;;;;;;;5038002;28;19976;-79
2023/06/09 15:56:39;;;;;;;;;;;;;;;;;;5027725;28;19931;-77
2023/06/09 15:59:06;;;;;;;;;;;;;;;;;;5025596;28;19926;-78
2023/06/09 16:01:33;;;;;;;;;;;;;;;;;;5026616;28;20027;-79
2023/06/09 16:04:00;;;;;;;;;;;;;;;;;;5027374;28;19925;-79
2023/06/09 16:06:27;;;;;;;;;;;;;;;;;;5031410;28;19925;-78
2023/06/09 16:08:54;;;;;;;;;;;;;;;;;;5023550;28;20004;-77
2023/06/09 16:11:21;;;;;;;;;;;;;;;;;;5023606;28;19930;-77
2023/06/09 16:13:48;;;;;;;;;;;;;;;;;;5028629;28;19925;-77
2023/06/09 16:16:15;;;;;;;;;;;;;;;;;;5029354;28;20008;-77
2023/06/09 16:18:42;;;;;;;;;;;;;;;;;;5030542;28;20019;-77
2023/06/09 16:21:09;;;;;;;;;;;;;;;;;;5024207;28;19925;-77
2023/06/09 16:23:36;;;;;;;;;;;;;;;;;;5018819;28;19940;-77
2023/06/09 16:26:03;;;;;;;;;;;;;;;;;;5026624;28;20440;-78
2023/06/09 16:28:30;;;;;;;;;;;;;;;;;;5030637;28;20356;-78
2023/06/09 16:30:57;;;;;;;;;;;;;;;;;;5026910;28;20354;-77
2023/06/09 16:33:24;;;;;;;;;;;;;;;;;;5023792;28;19925;-78
2023/06/09 16:35:51;;;;;;;;;;;;;;;;;;5029024;28;19955;-77
2023/06/09 16:38:18;;;;;;;;;;;;;;;;;;5026042;28;20008;-77
2023/06/09 16:40:45;;;;;;;;;;;;;;;;;;5020421;28;20399;-77
2023/06/09 16:43:12;;;;;;;;;;;;;;;;;;5019301;28;19926;-78
2023/06/09 16:45:39;;;;;;;;;;;;;;;;;;5025099;28;20020;-78